createdAt,value
2023-05-05T00:00:09.470Z,6.05
2023-05-05T00:02:44.406Z,5.43
2023-05-05T00:05:18.052Z,5.88
2023-05-05T00:07:51.578Z,6.88
2023-05-05T00:10:25.439Z,6.93
2023-05-05T00:12:58.955Z,6.30
2023-05-05T00:15:32.457Z,6.03
2023-05-05T00:18:07.656Z,7.00
2023-05-05T00:20:41.514Z,6.30
2023-05-05T00:23:15.107Z,5.47
2023-05-05T00:25:48.702Z,7.22
2023-05-05T00:28:22.227Z,6.20
2023-05-05T00:30:55.735Z,5.38
2023-05-05T00:33:30.635Z,6.13
2023-05-05T00:36:04.617Z,7.63
2023-05-05T00:38:38.253Z,6.85
2023-05-05T00:41:11.737Z,6.25
2023-05-05T00:43:45.224Z,7.03
2023-05-05T00:46:25.527Z,7.28
2023-05-05T00:49:02.269Z,5.65
2023-05-05T00:51:35.827Z,6.93
2023-05-05T00:54:09.334Z,5.78
2023-05-05T00:56:43.431Z,5.57
2023-05-05T00:59:17.576Z,6.38
2023-05-05T01:01:51.439Z,6.20
2023-05-05T01:04:26.992Z,5.32
2023-05-05T01:07:12.444Z,5.25
2023-05-05T01:10:04.225Z,6.15
2023-05-05T01:12:52.952Z,5.93
2023-05-05T01:15:34.537Z,6.32
2023-05-05T01:18:16.324Z,5.03
2023-05-05T01:21:02.923Z,5.93
2023-05-05T01:23:58.443Z,5.90
2023-05-05T01:26:59.128Z,5.72
2023-05-05T01:30:02.128Z,5.30
2023-05-05T01:35:19.613Z,6.70
2023-05-05T01:38:01.678Z,6.63
2023-05-05T01:40:42.481Z,7.38
2023-05-05T01:43:18.822Z,22.77
2023-05-05T01:45:54.898Z,12.02
2023-05-05T01:48:30.975Z,12.13
2023-05-05T01:51:06.716Z,10.45
2023-05-05T01:53:41.577Z,13.95
2023-05-05T01:56:17.378Z,11.30
2023-05-05T01:58:52.690Z,10.82
2023-05-05T02:01:27.726Z,11.95
2023-05-05T02:04:06.346Z,11.38
2023-05-05T02:06:42.244Z,16.17
2023-05-05T02:09:17.136Z,16.05
2023-05-05T02:11:51.366Z,10.35
2023-05-05T02:14:25.896Z,12.30
2023-05-05T02:17:00.164Z,8.75
2023-05-05T02:19:40.102Z,10.13
2023-05-05T02:22:16.545Z,11.52
2023-05-05T02:24:50.093Z,10.77
2023-05-05T02:27:27.517Z,14.75
2023-05-05T02:30:07.977Z,12.48
2023-05-05T02:32:48.371Z,12.45
2023-05-05T02:35:28.032Z,9.02
2023-05-05T02:38:05.614Z,10.35
2023-05-05T02:40:46.221Z,9.32
2023-05-05T02:43:24.279Z,8.20
2023-05-05T02:45:58.579Z,9.90
2023-05-05T02:48:32.997Z,8.65
2023-05-05T02:51:10.136Z,10.60
2023-05-05T02:53:44.601Z,9.85
2023-05-05T02:56:27.940Z,14.60
2023-05-05T02:59:12.476Z,10.80
2023-05-05T03:02:04.509Z,9.05
2023-05-05T03:04:42.997Z,9.40
2023-05-05T03:07:23.398Z,9.80
2023-05-05T03:10:04.488Z,6.93
2023-05-05T03:12:49.568Z,8.30
2023-05-05T03:15:32.416Z,6.43
2023-05-05T03:18:10.698Z,6.93
2023-05-05T03:20:46.548Z,10.10
2023-05-05T03:23:23.580Z,7.13
2023-05-05T03:26:03.073Z,7.63
2023-05-05T03:28:43.530Z,6.32
2023-05-05T03:31:31.873Z,6.75
2023-05-05T03:34:07.983Z,7.28
2023-05-05T03:36:47.923Z,6.20
2023-05-05T03:39:24.230Z,7.97
2023-05-05T03:41:57.940Z,8.48
2023-05-05T03:44:35.003Z,7.05
2023-05-05T03:47:08.752Z,9.00
2023-05-05T03:49:44.381Z,6.20
2023-05-05T03:52:17.889Z,6.18
2023-05-05T03:54:54.237Z,10.07
2023-05-05T03:57:27.927Z,9.65
2023-05-05T04:00:02.548Z,7.28
2023-05-05T04:02:37.259Z,7.38
2023-05-05T04:05:11.410Z,8.90
2023-05-05T04:07:44.950Z,7.85
2023-05-05T04:10:20.070Z,8.35
2023-05-05T04:12:53.670Z,11.13
2023-05-05T04:15:27.278Z,8.63
2023-05-05T04:18:01.438Z,7.30
2023-05-05T04:20:36.995Z,13.25
2023-05-05T04:23:10.928Z,8.50
2023-05-05T04:25:46.466Z,10.25
2023-05-05T04:28:21.809Z,7.38
2023-05-05T04:30:55.740Z,8.30
2023-05-05T04:33:29.587Z,13.23
2023-05-05T04:36:03.152Z,12.85
2023-05-05T04:38:36.860Z,7.28
2023-05-05T04:41:12.850Z,16.75
2023-05-05T04:43:48.543Z,7.53
2023-05-05T04:46:22.790Z,7.22
2023-05-05T04:48:56.432Z,7.40
2023-05-05T04:51:30.901Z,10.13
2023-05-05T04:54:04.568Z,9.25
2023-05-05T04:56:39.550Z,9.07
2023-05-05T04:59:13.064Z,8.75
2023-05-05T05:01:46.800Z,10.20
2023-05-05T05:04:21.723Z,8.07
2023-05-05T05:06:56.884Z,8.02
2023-05-05T05:09:32.644Z,7.72
2023-05-05T05:12:09.726Z,8.77
2023-05-05T05:14:43.343Z,8.60
2023-05-05T05:17:17.116Z,6.85
2023-05-05T05:19:50.733Z,7.38
2023-05-05T05:22:24.383Z,6.65
2023-05-05T05:24:58.239Z,6.38
2023-05-05T05:27:33.309Z,6.82
2023-05-05T05:30:07.979Z,6.47
2023-05-05T05:32:42.366Z,8.32
2023-05-05T05:35:16.781Z,6.45
2023-05-05T05:37:51.909Z,6.57
2023-05-05T05:40:25.789Z,7.25
2023-05-05T05:43:01.065Z,11.75
2023-05-05T05:45:35.184Z,9.13
2023-05-05T05:48:10.760Z,10.18
2023-05-05T05:50:44.591Z,10.52
2023-05-05T05:53:18.270Z,6.40
2023-05-05T05:55:52.271Z,7.93
2023-05-05T05:58:29.069Z,7.68
2023-05-05T06:01:04.117Z,7.38
2023-05-05T06:03:38.534Z,6.57
2023-05-05T06:06:13.054Z,6.43
2023-05-05T06:08:46.655Z,6.70
2023-05-05T06:11:20.253Z,5.65
2023-05-05T06:13:55.878Z,7.22
2023-05-05T06:16:29.486Z,9.45
2023-05-05T06:19:09.829Z,9.10
2023-05-05T06:21:43.930Z,8.05
2023-05-05T06:24:18.578Z,7.35
2023-05-05T06:26:52.409Z,6.32
2023-05-05T06:29:28.322Z,7.15
2023-05-05T06:32:02.277Z,7.63
2023-05-05T06:34:54.008Z,5.67
2023-05-05T06:37:27.600Z,6.00
2023-05-05T06:40:01.333Z,5.30
2023-05-05T06:42:36.074Z,5.70
2023-05-05T06:45:13.795Z,5.30
2023-05-05T06:47:47.365Z,4.13
2023-05-05T06:50:21.182Z,6.38
2023-05-05T06:52:54.808Z,4.90
2023-05-05T06:55:28.665Z,5.18
2023-05-05T06:58:02.328Z,4.75
2023-05-05T07:00:37.819Z,4.05
2023-05-05T07:03:11.900Z,3.78
2023-05-05T07:05:45.778Z,4.15
2023-05-05T07:08:19.391Z,3.75
2023-05-05T07:10:53.504Z,4.20
2023-05-05T07:13:27.401Z,3.47
2023-05-05T07:16:04.032Z,3.67
2023-05-05T07:18:37.775Z,3.20
2023-05-05T07:21:11.389Z,3.17
2023-05-05T07:23:47.824Z,3.10
2023-05-05T07:26:21.868Z,3.17
2023-05-05T07:28:59.300Z,2.50
2023-05-05T07:31:34.825Z,2.63
2023-05-05T07:34:08.623Z,2.42
2023-05-05T07:36:53.839Z,2.03
2023-05-05T07:39:28.976Z,2.00
2023-05-05T07:42:06.282Z,2.75
2023-05-05T07:44:41.749Z,2.60
2023-05-05T07:47:20.148Z,2.00
2023-05-05T07:49:55.501Z,2.53
2023-05-05T07:52:46.624Z,2.03
2023-05-05T07:55:24.243Z,1.63
2023-05-05T07:57:58.130Z,2.05
2023-05-05T08:00:32.009Z,1.38
2023-05-05T08:03:10.699Z,1.92
2023-05-05T08:05:45.712Z,1.48
2023-05-05T08:08:19.484Z,1.65
2023-05-05T08:10:53.738Z,1.33
2023-05-05T08:13:55.551Z,1.25
2023-05-05T08:16:31.819Z,1.50
2023-05-05T08:19:17.641Z,1.38
2023-05-05T08:21:56.829Z,1.40
2023-05-05T08:24:33.974Z,1.20
2023-05-05T08:27:07.998Z,1.42
2023-05-05T08:38:07.899Z,1.45
2023-05-05T08:40:43.390Z,1.13
2023-05-05T08:44:10.648Z,1.83
2023-05-05T08:46:44.712Z,1.33
2023-05-05T08:49:20.250Z,1.45
2023-05-05T08:51:55.581Z,1.65
2023-05-05T08:54:34.275Z,0.93
2023-05-05T08:57:11.443Z,1.10
2023-05-05T08:59:46.162Z,1.38
2023-05-05T09:02:23.870Z,1.42
2023-05-05T09:04:58.099Z,1.00
2023-05-05T09:07:32.607Z,1.08
2023-05-05T09:10:09.771Z,1.10
2023-05-05T09:12:43.634Z,0.88
2023-05-05T09:15:17.288Z,1.45
2023-05-05T09:17:50.916Z,1.58
2023-05-05T09:20:24.671Z,1.33
2023-05-05T09:22:58.308Z,1.23
2023-05-05T09:25:33.547Z,1.20
2023-05-05T09:28:11.580Z,1.08
2023-05-05T09:30:47.216Z,1.40
2023-05-05T09:33:31.102Z,1.13
2023-05-05T09:36:04.983Z,1.40
2023-05-05T09:38:38.787Z,1.23
2023-05-05T09:41:15.527Z,0.68
2023-05-05T09:43:52.963Z,0.90
2023-05-05T09:46:26.964Z,1.15
2023-05-05T09:49:14.317Z,1.35
2023-05-05T09:51:48.630Z,1.30
2023-05-05T09:54:26.502Z,1.17
2023-05-05T09:57:01.643Z,1.17
2023-05-05T09:59:35.767Z,1.48
2023-05-05T10:02:14.506Z,1.30
2023-05-05T10:04:48.154Z,1.10
2023-05-05T10:07:25.097Z,1.00
2023-05-05T10:09:58.919Z,0.88
2023-05-05T10:12:36.548Z,1.48
2023-05-05T10:15:11.213Z,1.10
2023-05-05T10:18:05.279Z,1.35
2023-05-05T10:20:43.176Z,1.10
2023-05-05T10:23:21.001Z,1.30
2023-05-05T10:26:00.314Z,1.02
2023-05-05T10:28:38.436Z,1.33
2023-05-05T10:31:26.044Z,1.40
2023-05-05T10:34:04.760Z,0.90
2023-05-05T10:36:39.997Z,0.90
2023-05-05T10:39:16.235Z,1.20
2023-05-05T10:41:51.143Z,1.42
2023-05-05T10:44:26.381Z,0.85
2023-05-05T10:47:00.834Z,1.00
2023-05-05T10:49:41.871Z,1.02
2023-05-05T10:52:27.029Z,1.20
2023-05-05T10:55:09.074Z,1.02
2023-05-05T10:57:45.706Z,0.88
2023-05-05T11:00:53.740Z,1.15
2023-05-05T11:03:27.440Z,1.00
2023-05-05T11:06:12.549Z,2.40
2023-05-05T11:08:46.680Z,1.55
2023-05-05T11:11:58.603Z,1.63
2023-05-05T11:14:32.384Z,1.30
2023-05-05T11:17:27.497Z,1.33
2023-05-05T11:20:04.498Z,1.30
2023-05-05T11:23:24.957Z,1.00
2023-05-05T11:25:59.210Z,1.13
2023-05-05T11:28:33.261Z,1.08
2023-05-05T11:31:20.668Z,1.00
2023-05-05T11:33:55.984Z,1.10
2023-05-05T11:36:41.484Z,1.20
2023-05-05T11:39:24.735Z,1.40
2023-05-05T11:42:25.308Z,1.00
2023-05-05T11:44:59.609Z,1.25
2023-05-05T11:47:33.972Z,1.25
2023-05-05T11:50:21.757Z,1.10
2023-05-05T11:52:55.350Z,1.00
2023-05-05T11:55:30.707Z,1.13
2023-05-05T11:58:19.288Z,1.00
2023-05-05T12:00:53.249Z,1.02
2023-05-05T12:03:27.274Z,1.15
2023-05-05T12:06:02.790Z,1.98
2023-05-05T12:08:40.290Z,1.30
2023-05-05T12:11:13.990Z,1.42
2023-05-05T12:13:47.787Z,3.78
2023-05-05T12:16:21.696Z,1.55
2023-05-05T12:19:06.046Z,1.25
2023-05-05T12:21:41.103Z,1.80
2023-05-05T12:24:14.867Z,1.40
2023-05-05T12:26:48.804Z,1.00
2023-05-05T12:29:26.265Z,1.23
2023-05-05T12:32:00.423Z,2.70
2023-05-05T12:34:34.632Z,2.65
2023-05-05T12:37:10.191Z,1.23
2023-05-05T12:39:44.179Z,1.65
2023-05-05T12:42:18.590Z,2.22
2023-05-05T12:44:52.358Z,1.25
2023-05-05T12:47:33.448Z,16.55
2023-05-05T12:50:08.192Z,6.28
2023-05-05T12:52:47.375Z,1.42
2023-05-05T12:55:21.302Z,1.33
2023-05-05T12:58:02.154Z,6.60
2023-05-05T13:00:36.038Z,2.10
2023-05-05T13:03:20.406Z,1.83
2023-05-05T13:05:54.169Z,2.75
2023-05-05T13:08:46.826Z,1.50
2023-05-05T13:13:53.900Z,1.80
2023-05-05T13:16:27.603Z,1.58
2023-05-05T13:19:01.282Z,1.63
2023-05-05T13:21:35.092Z,2.10
2023-05-05T13:24:22.940Z,3.85
2023-05-05T13:27:02.978Z,1.83
2023-05-05T13:29:36.812Z,3.40
2023-05-05T13:32:10.456Z,1.92
2023-05-05T13:34:44.290Z,1.65
2023-05-05T13:37:20.338Z,1.42
2023-05-05T13:39:59.424Z,1.20
2023-05-05T13:42:33.593Z,1.33
2023-05-05T13:45:21.046Z,1.75
2023-05-05T13:47:55.045Z,1.35
2023-05-05T13:50:29.245Z,3.08
2023-05-05T13:53:05.189Z,2.67
2023-05-05T13:55:40.683Z,2.17
2023-05-05T13:58:14.530Z,1.77
2023-05-05T14:00:48.498Z,1.23
2023-05-05T14:03:23.915Z,1.50
2023-05-05T14:05:57.838Z,2.05
2023-05-05T14:08:31.657Z,1.52
2023-05-05T14:11:07.324Z,1.75
2023-05-05T14:13:41.195Z,2.15
2023-05-05T14:16:15.400Z,1.85
2023-05-05T14:18:49.294Z,2.03
2023-05-05T14:21:23.008Z,2.78
2023-05-05T14:23:59.768Z,3.17
2023-05-05T14:26:34.981Z,1.77
2023-05-05T14:29:08.748Z,1.52
2023-05-05T14:31:42.539Z,2.17
2023-05-05T14:34:16.245Z,2.00
2023-05-05T14:36:49.800Z,1.58
2023-05-05T14:39:23.271Z,1.75
2023-05-05T14:41:58.258Z,2.03
2023-05-05T14:44:31.791Z,1.80
2023-05-05T14:47:05.514Z,1.85
2023-05-05T14:49:39.046Z,1.80
2023-05-05T14:52:12.813Z,1.60
2023-05-05T14:54:46.679Z,1.35
2023-05-05T14:57:22.187Z,3.05
2023-05-05T14:59:55.888Z,1.80
2023-05-05T15:02:29.770Z,2.90
2023-05-05T15:05:03.713Z,1.40
2023-05-05T15:07:37.545Z,2.10
2023-05-05T15:10:12.213Z,1.85
2023-05-05T15:12:47.482Z,3.92
2023-05-05T15:15:21.470Z,2.42
2023-05-05T15:17:55.538Z,2.20
2023-05-05T15:20:29.502Z,2.20
2023-05-05T15:23:03.259Z,1.75
2023-05-05T15:25:37.182Z,1.67
2023-05-05T15:28:12.381Z,2.17
2023-05-05T15:30:49.495Z,2.08
2023-05-05T15:33:23.254Z,2.00
2023-05-05T15:35:56.971Z,2.42
2023-05-05T15:38:31.407Z,1.63
2023-05-05T15:41:07.577Z,2.42
2023-05-05T15:43:42.733Z,2.13
2023-05-05T15:46:16.736Z,2.05
2023-05-05T15:48:50.619Z,1.80
2023-05-05T15:51:24.408Z,1.70
2023-05-05T15:53:58.529Z,1.80
2023-05-05T15:56:32.504Z,2.83
2023-05-05T15:59:07.871Z,1.85
2023-05-05T16:01:41.847Z,2.03
2023-05-05T16:04:16.116Z,4.53
2023-05-05T16:06:49.836Z,4.72
2023-05-05T16:09:23.864Z,5.72
2023-05-05T16:11:57.760Z,3.58
2023-05-05T16:14:35.868Z,2.00
2023-05-05T16:17:10.153Z,1.70
2023-05-05T16:19:44.110Z,1.75
2023-05-05T16:22:18.121Z,1.75
2023-05-05T16:24:51.884Z,1.77
2023-05-05T16:27:26.669Z,2.03
2023-05-05T16:30:01.896Z,1.45
2023-05-05T16:32:35.788Z,1.27
2023-05-05T16:35:11.943Z,1.38
2023-05-05T16:37:45.977Z,2.08
2023-05-05T16:40:20.109Z,1.80
2023-05-05T16:42:53.785Z,2.05
2023-05-05T16:45:28.966Z,2.78
2023-05-05T16:48:02.958Z,2.20
2023-05-05T16:50:37.001Z,2.03
2023-05-05T16:53:11.383Z,2.05
2023-05-05T16:55:46.221Z,2.85
2023-05-05T17:04:53.116Z,2.38
2023-05-05T17:07:26.996Z,3.45
2023-05-05T17:10:00.719Z,3.33
2023-05-05T17:12:36.142Z,4.22
2023-05-05T17:15:12.099Z,5.30
2023-05-05T17:17:45.768Z,6.25
2023-05-05T17:20:20.892Z,5.15
2023-05-05T17:22:54.633Z,4.78
2023-05-05T17:25:28.407Z,4.25
2023-05-05T17:28:02.610Z,4.60
2023-05-05T17:30:37.655Z,4.88
2023-05-05T17:33:11.509Z,6.10
2023-05-05T17:35:47.295Z,4.15
2023-05-05T17:38:20.982Z,4.05
2023-05-05T17:40:54.644Z,4.78
2023-05-05T17:43:28.393Z,3.47
2023-05-05T17:46:02.219Z,3.42
2023-05-05T17:48:35.994Z,3.60
2023-05-05T17:51:11.302Z,3.60
2023-05-05T17:53:45.141Z,2.08
2023-05-05T17:56:19.182Z,2.75
2023-05-05T17:58:53.263Z,2.78
2023-05-05T18:01:28.009Z,1.83
2023-05-05T18:04:01.907Z,2.58
2023-05-05T18:06:38.899Z,3.08
2023-05-05T18:09:13.145Z,3.65
2023-05-05T18:11:47.360Z,3.50
2023-05-05T18:14:22.624Z,3.45
2023-05-05T18:16:56.491Z,2.80
2023-05-05T18:19:30.392Z,3.42
2023-05-05T18:22:06.551Z,4.18
2023-05-05T18:24:40.489Z,4.20
2023-05-05T18:27:14.321Z,4.43
2023-05-05T18:29:49.575Z,4.88
2023-05-05T18:32:23.966Z,5.38
2023-05-05T18:34:57.963Z,7.28
2023-05-05T18:37:33.494Z,5.72
2023-05-05T18:40:10.156Z,5.07
2023-05-05T18:42:45.121Z,4.35
2023-05-05T18:45:19.054Z,5.00
2023-05-05T18:47:53.318Z,7.55
2023-05-05T18:50:29.094Z,8.80
2023-05-05T18:53:07.233Z,6.80
2023-05-05T18:55:44.271Z,5.07
2023-05-05T18:58:19.085Z,5.15
2023-05-05T19:00:54.406Z,5.05
2023-05-05T19:03:30.965Z,5.70
2023-05-05T19:06:07.647Z,5.25
2023-05-05T19:08:45.272Z,6.18
2023-05-05T19:11:20.665Z,6.43
2023-05-05T19:13:57.060Z,6.68
2023-05-05T19:16:31.253Z,14.77
2023-05-05T19:19:05.550Z,9.45
2023-05-05T19:21:41.077Z,11.18
2023-05-05T19:24:18.119Z,10.32
2023-05-05T19:26:53.126Z,9.43
2023-05-05T19:29:27.146Z,10.10
2023-05-05T19:32:02.234Z,9.32
2023-05-05T19:34:36.577Z,12.00
2023-05-05T19:37:13.428Z,13.35
2023-05-05T19:39:53.978Z,9.02
2023-05-05T19:42:36.613Z,9.18
2023-05-05T19:45:10.947Z,8.73
2023-05-05T19:47:46.421Z,10.00
2023-05-05T19:50:21.852Z,8.48
2023-05-05T19:52:58.229Z,8.35
2023-05-05T19:55:35.749Z,7.90
2023-05-05T19:58:12.425Z,6.78
2023-05-05T20:00:47.056Z,4.93
2023-05-05T20:03:22.774Z,4.90
2023-05-05T20:05:58.211Z,4.72
2023-05-05T20:08:32.343Z,3.80
2023-05-05T20:11:08.077Z,4.60
2023-05-05T20:13:44.292Z,5.47
2023-05-05T20:16:18.674Z,4.43
2023-05-05T20:18:52.719Z,4.43
2023-05-05T20:21:27.274Z,4.75
2023-05-05T20:24:02.404Z,4.68
2023-05-05T20:26:39.106Z,3.90
2023-05-05T20:29:18.070Z,4.22
2023-05-05T20:31:52.242Z,5.20
2023-05-05T20:34:29.169Z,6.40
2023-05-05T20:37:03.215Z,7.68
2023-05-05T20:39:37.318Z,8.32
2023-05-05T20:42:12.870Z,6.40
2023-05-05T20:44:46.809Z,7.05
2023-05-05T20:47:21.201Z,6.40
2023-05-05T20:49:55.206Z,7.03
2023-05-05T20:52:29.179Z,7.30
2023-05-05T20:55:03.046Z,4.93
2023-05-05T20:57:40.420Z,5.75
2023-05-05T21:00:14.955Z,9.40
2023-05-05T21:02:49.032Z,5.55
2023-05-05T21:05:23.148Z,5.60
2023-05-05T21:07:58.332Z,3.90
2023-05-05T21:10:34.008Z,4.25
2023-05-05T21:13:09.280Z,4.85
2023-05-05T21:15:43.190Z,4.40
2023-05-05T21:18:17.137Z,4.20
2023-05-05T21:20:50.869Z,5.03
2023-05-05T21:23:24.600Z,4.55
2023-05-05T21:25:58.359Z,4.97
2023-05-05T21:28:33.570Z,6.15
2023-05-05T21:31:21.295Z,5.75
2023-05-05T21:33:58.176Z,5.55
2023-05-05T21:36:33.829Z,5.75
2023-05-05T21:39:08.482Z,6.60
2023-05-05T21:41:42.135Z,5.18
2023-05-05T21:44:17.385Z,5.43
2023-05-05T21:46:51.190Z,4.85
2023-05-05T21:49:24.836Z,4.68
2023-05-05T21:51:58.463Z,4.80
2023-05-05T21:54:32.073Z,4.82
2023-05-05T21:57:06.405Z,4.97
2023-05-05T21:59:41.429Z,7.80
2023-05-05T22:02:15.039Z,6.00
2023-05-05T22:04:49.300Z,5.93
2023-05-05T22:07:22.894Z,5.90
2023-05-05T22:09:56.587Z,5.22
2023-05-05T22:12:30.138Z,6.90
2023-05-05T22:15:05.691Z,5.70
2023-05-05T22:17:39.356Z,5.97
2023-05-05T22:20:13.510Z,6.07
2023-05-05T22:22:47.162Z,5.22
2023-05-05T22:25:20.928Z,6.43
2023-05-05T22:27:55.791Z,4.55
2023-05-05T22:30:30.745Z,5.10
2023-05-05T22:33:04.495Z,5.13
2023-05-05T22:35:38.657Z,4.47
2023-05-05T22:38:12.144Z,5.95
2023-05-05T22:40:45.778Z,5.15
2023-05-05T22:43:19.330Z,5.10
2023-05-05T22:45:54.404Z,4.32
2023-05-05T22:48:27.896Z,4.97
2023-05-05T22:51:01.659Z,5.43
2023-05-05T22:53:35.168Z,5.40
2023-05-05T22:56:08.892Z,4.95
2023-05-05T22:58:42.380Z,4.70
2023-05-05T23:01:17.382Z,4.90
2023-05-05T23:03:50.925Z,5.20
2023-05-05T23:06:24.613Z,5.55
2023-05-05T23:08:58.146Z,5.15
2023-05-05T23:11:31.983Z,4.82
2023-05-05T23:14:05.606Z,5.38
2023-05-05T23:16:42.945Z,5.07
2023-05-05T23:19:16.517Z,5.07
2023-05-05T23:21:53.546Z,5.28
2023-05-05T23:24:27.808Z,7.13
2023-05-05T23:27:03.175Z,6.30
2023-05-05T23:29:36.748Z,6.07
2023-05-05T23:32:11.707Z,5.32
2023-05-05T23:34:45.198Z,5.70
2023-05-05T23:37:18.763Z,5.07
2023-05-05T23:39:52.245Z,6.20
2023-05-05T23:42:25.935Z,6.05
2023-05-05T23:44:59.395Z,5.43
2023-05-05T23:47:34.342Z,6.75
2023-05-05T23:50:09.134Z,6.28
2023-05-05T23:52:42.929Z,5.85
2023-05-05T23:55:16.391Z,6.30
2023-05-05T23:57:51.594Z,6.75
